sensor_id;sensor_type;location;lat;lon;timestamp;P1;durP1;ratioP1;P2;durP2;ratioP2
27899;SDS011;15243;50.726;7.080;2023-03-03T00:01:53;40.22;;;20.73;;
27899;SDS011;15243;50.726;7.080;2023-03-03T00:04:20;42.58;;;21.58;;
27899;SDS011;15243;50.726;7.080;2023-03-03T00:06:47;39.47;;;21.02;;
27899;SDS011;15243;50.726;7.080;2023-03-03T00:09:14;47.08;;;23.17;;
27899;SDS011;15243;50.726;7.080;2023-03-03T00:11:41;47.17;;;22.15;;
27899;SDS011;15243;50.726;7.080;2023-03-03T00:14:21;53.38;;;23.42;;
27899;SDS011;15243;50.726;7.080;2023-03-03T00:16:51;44.50;;;23.20;;
27899;SDS011;15243;50.726;7.080;2023-03-03T00:19:18;43.88;;;21.67;;
27899;SDS011;15243;50.726;7.080;2023-03-03T00:21:47;39.20;;;20.65;;
27899;SDS011;15243;50.726;7.080;2023-03-03T00:24:17;40.47;;;21.10;;
27899;SDS011;15243;50.726;7.080;2023-03-03T00:26:51;45.88;;;22.35;;
27899;SDS011;15243;50.726;7.080;2023-03-03T00:29:23;49.58;;;23.30;;
27899;SDS011;15243;50.726;7.080;2023-03-03T00:31:52;44.78;;;21.60;;
27899;SDS011;15243;50.726;7.080;2023-03-03T00:34:23;47.67;;;21.65;;
27899;SDS011;15243;50.726;7.080;2023-03-03T00:39:25;47.00;;;22.48;;
27899;SDS011;15243;50.726;7.080;2023-03-03T00:41:58;45.70;;;21.20;;
27899;SDS011;15243;50.726;7.080;2023-03-03T00:44:45;50.65;;;23.42;;
27899;SDS011;15243;50.726;7.080;2023-03-03T00:52:37;54.28;;;23.70;;
27899;SDS011;15243;50.726;7.080;2023-03-03T00:57:42;55.85;;;24.95;;
27899;SDS011;15243;50.726;7.080;2023-03-03T01:00:13;59.42;;;26.70;;
27899;SDS011;15243;50.726;7.080;2023-03-03T01:02:40;54.00;;;24.95;;
27899;SDS011;15243;50.726;7.080;2023-03-03T01:05:07;55.72;;;24.88;;
27899;SDS011;15243;50.726;7.080;2023-03-03T01:07:38;55.70;;;25.88;;
27899;SDS011;15243;50.726;7.080;2023-03-03T01:10:05;53.08;;;26.25;;
27899;SDS011;15243;50.726;7.080;2023-03-03T01:12:33;53.65;;;25.73;;
27899;SDS011;15243;50.726;7.080;2023-03-03T01:15:00;52.05;;;25.27;;
27899;SDS011;15243;50.726;7.080;2023-03-03T01:17:27;49.88;;;24.40;;
27899;SDS011;15243;50.726;7.080;2023-03-03T01:19:54;53.38;;;24.63;;
27899;SDS011;15243;50.726;7.080;2023-03-03T01:22:21;55.53;;;25.25;;
27899;SDS011;15243;50.726;7.080;2023-03-03T01:24:48;51.03;;;25.23;;
27899;SDS011;15243;50.726;7.080;2023-03-03T01:27:15;53.67;;;26.20;;
27899;SDS011;15243;50.726;7.080;2023-03-03T01:29:42;52.92;;;24.55;;
27899;SDS011;15243;50.726;7.080;2023-03-03T01:32:09;51.35;;;25.05;;
27899;SDS011;15243;50.726;7.080;2023-03-03T01:34:35;53.22;;;26.65;;
27899;SDS011;15243;50.726;7.080;2023-03-03T01:37:02;55.50;;;25.48;;
27899;SDS011;15243;50.726;7.080;2023-03-03T01:39:29;57.30;;;26.83;;
27899;SDS011;15243;50.726;7.080;2023-03-03T01:41:56;55.42;;;26.45;;
27899;SDS011;15243;50.726;7.080;2023-03-03T01:44:23;52.67;;;26.95;;
27899;SDS011;15243;50.726;7.080;2023-03-03T01:49:43;58.42;;;28.55;;
27899;SDS011;15243;50.726;7.080;2023-03-03T01:52:40;61.28;;;26.88;;
27899;SDS011;15243;50.726;7.080;2023-03-03T01:55:14;60.53;;;28.48;;
27899;SDS011;15243;50.726;7.080;2023-03-03T01:57:48;62.03;;;27.80;;
27899;SDS011;15243;50.726;7.080;2023-03-03T02:00:22;64.20;;;27.90;;
27899;SDS011;15243;50.726;7.080;2023-03-03T02:02:49;52.72;;;26.55;;
27899;SDS011;15243;50.726;7.080;2023-03-03T02:05:17;60.28;;;29.13;;
27899;SDS011;15243;50.726;7.080;2023-03-03T02:07:44;61.92;;;27.73;;
27899;SDS011;15243;50.726;7.080;2023-03-03T02:10:13;68.28;;;28.58;;
27899;SDS011;15243;50.726;7.080;2023-03-03T02:12:44;58.92;;;28.45;;
27899;SDS011;15243;50.726;7.080;2023-03-03T02:17:44;60.95;;;28.75;;
27899;SDS011;15243;50.726;7.080;2023-03-03T02:22:57;62.53;;;28.88;;
27899;SDS011;15243;50.726;7.080;2023-03-03T02:25:34;70.80;;;30.30;;
27899;SDS011;15243;50.726;7.080;2023-03-03T02:28:08;62.95;;;30.48;;
27899;SDS011;15243;50.726;7.080;2023-03-03T02:30:36;71.10;;;31.77;;
27899;SDS011;15243;50.726;7.080;2023-03-03T02:33:04;66.50;;;30.75;;
27899;SDS011;15243;50.726;7.080;2023-03-03T02:35:32;64.22;;;30.00;;
27899;SDS011;15243;50.726;7.080;2023-03-03T02:38:23;68.65;;;30.83;;
27899;SDS011;15243;50.726;7.080;2023-03-03T02:44:00;82.20;;;36.63;;
27899;SDS011;15243;50.726;7.080;2023-03-03T02:46:28;78.18;;;35.40;;
27899;SDS011;15243;50.726;7.080;2023-03-03T02:48:59;89.70;;;39.00;;
27899;SDS011;15243;50.726;7.080;2023-03-03T02:51:26;88.60;;;38.63;;
27899;SDS011;15243;50.726;7.080;2023-03-03T02:53:53;88.15;;;39.83;;
27899;SDS011;15243;50.726;7.080;2023-03-03T02:56:20;83.00;;;36.88;;
27899;SDS011;15243;50.726;7.080;2023-03-03T02:58:47;90.28;;;38.42;;
27899;SDS011;15243;50.726;7.080;2023-03-03T03:01:14;96.35;;;40.33;;
27899;SDS011;15243;50.726;7.080;2023-03-03T03:03:41;91.95;;;39.35;;
27899;SDS011;15243;50.726;7.080;2023-03-03T03:06:08;103.75;;;43.42;;
27899;SDS011;15243;50.726;7.080;2023-03-03T03:08:35;96.72;;;42.95;;
27899;SDS011;15243;50.726;7.080;2023-03-03T03:11:02;100.38;;;42.35;;
27899;SDS011;15243;50.726;7.080;2023-03-03T03:13:29;110.35;;;43.50;;
27899;SDS011;15243;50.726;7.080;2023-03-03T03:15:57;111.20;;;47.40;;
27899;SDS011;15243;50.726;7.080;2023-03-03T03:18:24;99.72;;;42.60;;
27899;SDS011;15243;50.726;7.080;2023-03-03T03:20:52;104.20;;;44.10;;
27899;SDS011;15243;50.726;7.080;2023-03-03T03:23:19;109.80;;;44.20;;
27899;SDS011;15243;50.726;7.080;2023-03-03T03:25:47;99.93;;;44.50;;
27899;SDS011;15243;50.726;7.080;2023-03-03T03:28:15;106.10;;;44.05;;
27899;SDS011;15243;50.726;7.080;2023-03-03T03:30:43;105.55;;;45.85;;
27899;SDS011;15243;50.726;7.080;2023-03-03T03:33:11;108.75;;;45.50;;
27899;SDS011;15243;50.726;7.080;2023-03-03T03:35:38;106.28;;;44.67;;
27899;SDS011;15243;50.726;7.080;2023-03-03T03:38:10;111.10;;;48.00;;
27899;SDS011;15243;50.726;7.080;2023-03-03T03:40:38;106.55;;;46.20;;
27899;SDS011;15243;50.726;7.080;2023-03-03T03:43:05;117.75;;;46.58;;
27899;SDS011;15243;50.726;7.080;2023-03-03T03:45:32;118.57;;;46.90;;
27899;SDS011;15243;50.726;7.080;2023-03-03T03:48:00;119.88;;;47.75;;
27899;SDS011;15243;50.726;7.080;2023-03-03T03:50:27;124.63;;;50.20;;
27899;SDS011;15243;50.726;7.080;2023-03-03T03:52:54;123.57;;;52.78;;
27899;SDS011;15243;50.726;7.080;2023-03-03T03:55:20;124.97;;;51.65;;
27899;SDS011;15243;50.726;7.080;2023-03-03T03:57:47;123.03;;;49.63;;
27899;SDS011;15243;50.726;7.080;2023-03-03T04:00:14;121.32;;;49.35;;
27899;SDS011;15243;50.726;7.080;2023-03-03T04:02:42;127.18;;;50.65;;
27899;SDS011;15243;50.726;7.080;2023-03-03T04:05:09;128.30;;;51.55;;
27899;SDS011;15243;50.726;7.080;2023-03-03T04:07:36;132.60;;;52.83;;
27899;SDS011;15243;50.726;7.080;2023-03-03T04:10:03;135.57;;;55.10;;
27899;SDS011;15243;50.726;7.080;2023-03-03T04:12:30;143.02;;;55.33;;
27899;SDS011;15243;50.726;7.080;2023-03-03T04:15:10;147.00;;;56.20;;
27899;SDS011;15243;50.726;7.080;2023-03-03T04:17:39;137.40;;;54.53;;
27899;SDS011;15243;50.726;7.080;2023-03-03T04:20:07;142.55;;;53.85;;
27899;SDS011;15243;50.726;7.080;2023-03-03T04:22:36;142.85;;;54.67;;
27899;SDS011;15243;50.726;7.080;2023-03-03T04:25:03;146.38;;;55.65;;
27899;SDS011;15243;50.726;7.080;2023-03-03T04:27:31;150.73;;;55.40;;
27899;SDS011;15243;50.726;7.080;2023-03-03T04:30:02;150.50;;;58.92;;
27899;SDS011;15243;50.726;7.080;2023-03-03T04:32:30;158.15;;;60.10;;
27899;SDS011;15243;50.726;7.080;2023-03-03T04:34:59;154.45;;;58.10;;
27899;SDS011;15243;50.726;7.080;2023-03-03T04:37:34;161.35;;;61.58;;
27899;SDS011;15243;50.726;7.080;2023-03-03T04:40:02;150.15;;;55.83;;
27899;SDS011;15243;50.726;7.080;2023-03-03T04:42:30;158.85;;;60.38;;
27899;SDS011;15243;50.726;7.080;2023-03-03T04:44:57;157.65;;;60.00;;
27899;SDS011;15243;50.726;7.080;2023-03-03T04:47:23;159.70;;;60.97;;
27899;SDS011;15243;50.726;7.080;2023-03-03T04:49:51;159.40;;;57.88;;
27899;SDS011;15243;50.726;7.080;2023-03-03T04:52:18;165.93;;;61.17;;
27899;SDS011;15243;50.726;7.080;2023-03-03T04:54:45;172.40;;;63.15;;
27899;SDS011;15243;50.726;7.080;2023-03-03T04:57:12;164.50;;;61.90;;
27899;SDS011;15243;50.726;7.080;2023-03-03T04:59:38;177.43;;;62.53;;
27899;SDS011;15243;50.726;7.080;2023-03-03T05:02:05;172.10;;;62.70;;
27899;SDS011;15243;50.726;7.080;2023-03-03T05:04:32;160.70;;;60.53;;
27899;SDS011;15243;50.726;7.080;2023-03-03T05:06:59;157.38;;;58.10;;
27899;SDS011;15243;50.726;7.080;2023-03-03T05:09:26;165.77;;;61.33;;
27899;SDS011;15243;50.726;7.080;2023-03-03T05:11:53;173.93;;;62.13;;
27899;SDS011;15243;50.726;7.080;2023-03-03T05:14:19;174.05;;;61.05;;
27899;SDS011;15243;50.726;7.080;2023-03-03T05:16:47;178.77;;;61.53;;
27899;SDS011;15243;50.726;7.080;2023-03-03T05:19:13;163.70;;;59.58;;
27899;SDS011;15243;50.726;7.080;2023-03-03T05:21:40;174.70;;;60.70;;
27899;SDS011;15243;50.726;7.080;2023-03-03T05:24:08;170.48;;;61.47;;
27899;SDS011;15243;50.726;7.080;2023-03-03T05:26:36;165.38;;;60.75;;
27899;SDS011;15243;50.726;7.080;2023-03-03T05:29:03;171.48;;;59.75;;
27899;SDS011;15243;50.726;7.080;2023-03-03T05:31:30;167.48;;;61.22;;
27899;SDS011;15243;50.726;7.080;2023-03-03T05:33:57;168.90;;;61.00;;
27899;SDS011;15243;50.726;7.080;2023-03-03T05:36:24;173.00;;;62.13;;
27899;SDS011;15243;50.726;7.080;2023-03-03T05:38:51;171.43;;;61.65;;
27899;SDS011;15243;50.726;7.080;2023-03-03T05:41:18;176.18;;;62.42;;
27899;SDS011;15243;50.726;7.080;2023-03-03T05:43:45;167.85;;;59.97;;
27899;SDS011;15243;50.726;7.080;2023-03-03T05:46:12;166.65;;;60.92;;
27899;SDS011;15243;50.726;7.080;2023-03-03T05:48:39;174.80;;;62.85;;
27899;SDS011;15243;50.726;7.080;2023-03-03T05:51:07;167.00;;;61.63;;
27899;SDS011;15243;50.726;7.080;2023-03-03T05:53:34;180.23;;;62.03;;
27899;SDS011;15243;50.726;7.080;2023-03-03T05:56:01;181.77;;;61.08;;
27899;SDS011;15243;50.726;7.080;2023-03-03T05:58:28;162.75;;;58.92;;
27899;SDS011;15243;50.726;7.080;2023-03-03T06:00:55;165.98;;;60.05;;
27899;SDS011;15243;50.726;7.080;2023-03-03T06:03:22;160.27;;;59.25;;
27899;SDS011;15243;50.726;7.080;2023-03-03T06:05:49;153.38;;;56.25;;
27899;SDS011;15243;50.726;7.080;2023-03-03T06:08:15;152.90;;;54.80;;
27899;SDS011;15243;50.726;7.080;2023-03-03T06:10:42;143.30;;;55.35;;
27899;SDS011;15243;50.726;7.080;2023-03-03T06:13:09;145.77;;;55.50;;
27899;SDS011;15243;50.726;7.080;2023-03-03T06:15:36;143.07;;;54.70;;
27899;SDS011;15243;50.726;7.080;2023-03-03T06:18:04;148.65;;;54.15;;
27899;SDS011;15243;50.726;7.080;2023-03-03T06:20:30;150.95;;;56.00;;
27899;SDS011;15243;50.726;7.080;2023-03-03T06:22:58;150.88;;;55.65;;
27899;SDS011;15243;50.726;7.080;2023-03-03T06:25:25;149.93;;;57.22;;
27899;SDS011;15243;50.726;7.080;2023-03-03T06:27:53;137.23;;;54.33;;
27899;SDS011;15243;50.726;7.080;2023-03-03T06:30:19;140.93;;;53.28;;
27899;SDS011;15243;50.726;7.080;2023-03-03T06:32:46;140.35;;;54.78;;
27899;SDS011;15243;50.726;7.080;2023-03-03T06:35:13;146.27;;;56.10;;
27899;SDS011;15243;50.726;7.080;2023-03-03T06:37:40;141.05;;;55.70;;
27899;SDS011;15243;50.726;7.080;2023-03-03T06:40:07;132.93;;;52.17;;
27899;SDS011;15243;50.726;7.080;2023-03-03T06:42:34;130.57;;;52.67;;
27899;SDS011;15243;50.726;7.080;2023-03-03T06:45:01;120.07;;;48.72;;
27899;SDS011;15243;50.726;7.080;2023-03-03T06:47:28;129.00;;;49.70;;
27899;SDS011;15243;50.726;7.080;2023-03-03T06:49:56;125.55;;;49.28;;
27899;SDS011;15243;50.726;7.080;2023-03-03T06:52:24;126.22;;;49.30;;
27899;SDS011;15243;50.726;7.080;2023-03-03T06:54:53;108.60;;;47.10;;
27899;SDS011;15243;50.726;7.080;2023-03-03T06:57:25;93.50;;;40.47;;
27899;SDS011;15243;50.726;7.080;2023-03-03T06:59:57;96.20;;;42.05;;
27899;SDS011;15243;50.726;7.080;2023-03-03T07:02:59;95.00;;;39.85;;
27899;SDS011;15243;50.726;7.080;2023-03-03T07:05:37;95.43;;;40.38;;
27899;SDS011;15243;50.726;7.080;2023-03-03T07:08:05;91.03;;;39.90;;
27899;SDS011;15243;50.726;7.080;2023-03-03T07:10:38;97.18;;;42.83;;
27899;SDS011;15243;50.726;7.080;2023-03-03T07:13:15;95.65;;;39.33;;
27899;SDS011;15243;50.726;7.080;2023-03-03T07:15:53;100.15;;;40.83;;
27899;SDS011;15243;50.726;7.080;2023-03-03T07:18:24;89.38;;;37.45;;
27899;SDS011;15243;50.726;7.080;2023-03-03T07:21:20;89.93;;;38.83;;
27899;SDS011;15243;50.726;7.080;2023-03-03T07:23:51;87.90;;;39.17;;
27899;SDS011;15243;50.726;7.080;2023-03-03T07:26:24;98.97;;;41.50;;
27899;SDS011;15243;50.726;7.080;2023-03-03T07:28:59;102.85;;;42.15;;
27899;SDS011;15243;50.726;7.080;2023-03-03T07:31:36;97.40;;;40.22;;
27899;SDS011;15243;50.726;7.080;2023-03-03T07:34:21;102.50;;;41.85;;
27899;SDS011;15243;50.726;7.080;2023-03-03T07:36:53;91.35;;;39.28;;
27899;SDS011;15243;50.726;7.080;2023-03-03T07:39:30;90.78;;;37.88;;
27899;SDS011;15243;50.726;7.080;2023-03-03T07:44:55;96.22;;;39.03;;
27899;SDS011;15243;50.726;7.080;2023-03-03T07:47:33;87.15;;;38.28;;
27899;SDS011;15243;50.726;7.080;2023-03-03T07:50:25;92.32;;;39.03;;
27899;SDS011;15243;50.726;7.080;2023-03-03T07:52:58;92.63;;;37.97;;
27899;SDS011;15243;50.726;7.080;2023-03-03T07:58:25;85.88;;;37.95;;
27899;SDS011;15243;50.726;7.080;2023-03-03T08:03:39;84.40;;;35.70;;
27899;SDS011;15243;50.726;7.080;2023-03-03T08:06:23;93.47;;;39.53;;
27899;SDS011;15243;50.726;7.080;2023-03-03T08:11:38;90.90;;;39.03;;
27899;SDS011;15243;50.726;7.080;2023-03-03T08:14:39;84.82;;;36.35;;
27899;SDS011;15243;50.726;7.080;2023-03-03T08:17:06;92.85;;;39.28;;
27899;SDS011;15243;50.726;7.080;2023-03-03T08:19:51;95.97;;;38.38;;
27899;SDS011;15243;50.726;7.080;2023-03-03T08:25:01;90.65;;;37.85;;
27899;SDS011;15243;50.726;7.080;2023-03-03T08:27:28;83.03;;;36.83;;
27899;SDS011;15243;50.726;7.080;2023-03-03T08:29:55;89.10;;;37.90;;
27899;SDS011;15243;50.726;7.080;2023-03-03T08:32:22;81.63;;;36.72;;
27899;SDS011;15243;50.726;7.080;2023-03-03T08:34:49;84.93;;;37.35;;
27899;SDS011;15243;50.726;7.080;2023-03-03T08:37:16;85.53;;;34.90;;
27899;SDS011;15243;50.726;7.080;2023-03-03T08:39:43;86.90;;;37.00;;
27899;SDS011;15243;50.726;7.080;2023-03-03T08:42:11;83.35;;;37.50;;
27899;SDS011;15243;50.726;7.080;2023-03-03T08:44:41;84.95;;;37.00;;
27899;SDS011;15243;50.726;7.080;2023-03-03T08:47:08;81.85;;;34.55;;
27899;SDS011;15243;50.726;7.080;2023-03-03T08:49:35;78.95;;;34.88;;
27899;SDS011;15243;50.726;7.080;2023-03-03T08:52:03;78.68;;;34.97;;
27899;SDS011;15243;50.726;7.080;2023-03-03T08:54:29;91.50;;;37.55;;
27899;SDS011;15243;50.726;7.080;2023-03-03T08:56:57;84.47;;;36.13;;
27899;SDS011;15243;50.726;7.080;2023-03-03T08:59:24;102.15;;;40.42;;
27899;SDS011;15243;50.726;7.080;2023-03-03T09:01:53;97.43;;;41.75;;
27899;SDS011;15243;50.726;7.080;2023-03-03T09:04:20;96.85;;;41.00;;
27899;SDS011;15243;50.726;7.080;2023-03-03T09:06:47;98.50;;;39.67;;
27899;SDS011;15243;50.726;7.080;2023-03-03T09:09:16;94.60;;;39.75;;
27899;SDS011;15243;50.726;7.080;2023-03-03T09:11:43;87.55;;;37.67;;
27899;SDS011;15243;50.726;7.080;2023-03-03T09:14:12;84.95;;;38.30;;
27899;SDS011;15243;50.726;7.080;2023-03-03T09:16:44;98.82;;;40.05;;
27899;SDS011;15243;50.726;7.080;2023-03-03T09:19:32;100.90;;;42.30;;
27899;SDS011;15243;50.726;7.080;2023-03-03T09:22:22;92.80;;;38.95;;
27899;SDS011;15243;50.726;7.080;2023-03-03T09:24:55;88.90;;;38.05;;
27899;SDS011;15243;50.726;7.080;2023-03-03T09:27:28;91.78;;;39.00;;
27899;SDS011;15243;50.726;7.080;2023-03-03T09:30:00;80.78;;;37.45;;
27899;SDS011;15243;50.726;7.080;2023-03-03T09:32:37;93.80;;;39.20;;
27899;SDS011;15243;50.726;7.080;2023-03-03T09:38:14;84.93;;;37.22;;
27899;SDS011;15243;50.726;7.080;2023-03-03T09:54:46;97.93;;;40.60;;
27899;SDS011;15243;50.726;7.080;2023-03-03T10:00:51;92.70;;;39.90;;
27899;SDS011;15243;50.726;7.080;2023-03-03T10:06:28;97.80;;;42.80;;
27899;SDS011;15243;50.726;7.080;2023-03-03T10:20:11;99.90;;;42.28;;
27899;SDS011;15243;50.726;7.080;2023-03-03T10:22:47;84.70;;;36.85;;
27899;SDS011;15243;50.726;7.080;2023-03-03T10:30:56;78.90;;;35.20;;
27899;SDS011;15243;50.726;7.080;2023-03-03T10:33:57;76.60;;;34.53;;
27899;SDS011;15243;50.726;7.080;2023-03-03T10:45:05;69.00;;;32.47;;
27899;SDS011;15243;50.726;7.080;2023-03-03T10:50:15;77.05;;;32.47;;
27899;SDS011;15243;50.726;7.080;2023-03-03T10:52:53;72.22;;;33.72;;
27899;SDS011;15243;50.726;7.080;2023-03-03T10:55:35;75.20;;;33.25;;
27899;SDS011;15243;50.726;7.080;2023-03-03T10:58:09;68.57;;;30.50;;
27899;SDS011;15243;50.726;7.080;2023-03-03T11:01:09;70.95;;;33.25;;
27899;SDS011;15243;50.726;7.080;2023-03-03T11:06:21;69.80;;;33.45;;
27899;SDS011;15243;50.726;7.080;2023-03-03T11:09:02;70.38;;;33.75;;
27899;SDS011;15243;50.726;7.080;2023-03-03T11:11:46;73.75;;;33.55;;
27899;SDS011;15243;50.726;7.080;2023-03-03T11:14:38;74.72;;;35.47;;
27899;SDS011;15243;50.726;7.080;2023-03-03T11:34:04;105.50;;;47.97;;
27899;SDS011;15243;50.726;7.080;2023-03-03T11:36:40;96.78;;;47.80;;
27899;SDS011;15243;50.726;7.080;2023-03-03T11:39:21;91.43;;;42.70;;
27899;SDS011;15243;50.726;7.080;2023-03-03T11:42:12;91.50;;;43.70;;
27899;SDS011;15243;50.726;7.080;2023-03-03T11:50:04;82.47;;;40.78;;
27899;SDS011;15243;50.726;7.080;2023-03-03T11:52:54;84.25;;;42.22;;
27899;SDS011;15243;50.726;7.080;2023-03-03T11:55:46;95.43;;;43.45;;
27899;SDS011;15243;50.726;7.080;2023-03-03T12:12:33;90.18;;;42.63;;
27899;SDS011;15243;50.726;7.080;2023-03-03T12:15:12;89.75;;;46.25;;
27899;SDS011;15243;50.726;7.080;2023-03-03T12:18:03;93.13;;;46.00;;
27899;SDS011;15243;50.726;7.080;2023-03-03T12:23:51;89.43;;;44.42;;
27899;SDS011;15243;50.726;7.080;2023-03-03T12:32:21;89.82;;;43.97;;
27899;SDS011;15243;50.726;7.080;2023-03-03T12:40:34;90.82;;;46.05;;
27899;SDS011;15243;50.726;7.080;2023-03-03T12:43:22;92.25;;;44.97;;
27899;SDS011;15243;50.726;7.080;2023-03-03T12:48:37;85.10;;;41.92;;
27899;SDS011;15243;50.726;7.080;2023-03-03T12:54:09;89.50;;;42.35;;
27899;SDS011;15243;50.726;7.080;2023-03-03T12:59:13;87.45;;;40.90;;
27899;SDS011;15243;50.726;7.080;2023-03-03T13:04:55;83.88;;;39.78;;
27899;SDS011;15243;50.726;7.080;2023-03-03T13:07:35;89.20;;;41.88;;
27899;SDS011;15243;50.726;7.080;2023-03-03T13:10:23;83.10;;;40.35;;
27899;SDS011;15243;50.726;7.080;2023-03-03T13:13:15;83.22;;;39.45;;
27899;SDS011;15243;50.726;7.080;2023-03-03T13:26:46;80.20;;;38.92;;
27899;SDS011;15243;50.726;7.080;2023-03-03T13:31:36;71.35;;;33.33;;
27899;SDS011;15243;50.726;7.080;2023-03-03T13:34:07;76.05;;;34.22;;
27899;SDS011;15243;50.726;7.080;2023-03-03T13:39:48;69.20;;;33.17;;
27899;SDS011;15243;50.726;7.080;2023-03-03T13:42:30;76.43;;;34.10;;
27899;SDS011;15243;50.726;7.080;2023-03-03T13:45:02;83.30;;;39.20;;
27899;SDS011;15243;50.726;7.080;2023-03-03T13:48:30;80.70;;;38.47;;
27899;SDS011;15243;50.726;7.080;2023-03-03T13:50:43;85.35;;;38.47;;
27899;SDS011;15243;50.726;7.080;2023-03-03T13:58:50;71.93;;;32.55;;
27899;SDS011;15243;50.726;7.080;2023-03-03T14:04:52;66.25;;;31.77;;
27899;SDS011;15243;50.726;7.080;2023-03-03T14:15:29;68.00;;;32.75;;
27899;SDS011;15243;50.726;7.080;2023-03-03T14:18:13;65.30;;;31.65;;
27899;SDS011;15243;50.726;7.080;2023-03-03T14:20:46;75.38;;;33.28;;
27899;SDS011;15243;50.726;7.080;2023-03-03T14:23:22;70.00;;;33.75;;
27899;SDS011;15243;50.726;7.080;2023-03-03T14:26:12;73.63;;;32.60;;
27899;SDS011;15243;50.726;7.080;2023-03-03T14:28:41;66.43;;;31.98;;
27899;SDS011;15243;50.726;7.080;2023-03-03T14:34:01;83.22;;;37.42;;
27899;SDS011;15243;50.726;7.080;2023-03-03T14:36:31;76.05;;;36.97;;
27899;SDS011;15243;50.726;7.080;2023-03-03T14:39:02;77.20;;;36.38;;
27899;SDS011;15243;50.726;7.080;2023-03-03T14:41:55;84.97;;;38.28;;
27899;SDS011;15243;50.726;7.080;2023-03-03T14:44:26;83.38;;;36.47;;
27899;SDS011;15243;50.726;7.080;2023-03-03T14:47:22;76.28;;;33.40;;
27899;SDS011;15243;50.726;7.080;2023-03-03T14:49:52;80.30;;;34.33;;
27899;SDS011;15243;50.726;7.080;2023-03-03T14:52:25;78.90;;;33.40;;
27899;SDS011;15243;50.726;7.080;2023-03-03T14:54:56;74.00;;;34.30;;
27899;SDS011;15243;50.726;7.080;2023-03-03T15:08:08;85.78;;;32.35;;
27899;SDS011;15243;50.726;7.080;2023-03-03T15:10:37;81.82;;;34.65;;
27899;SDS011;15243;50.726;7.080;2023-03-03T15:13:23;76.35;;;33.88;;
27899;SDS011;15243;50.726;7.080;2023-03-03T15:18:29;76.47;;;33.15;;
27899;SDS011;15243;50.726;7.080;2023-03-03T15:21:13;76.78;;;31.88;;
27899;SDS011;15243;50.726;7.080;2023-03-03T15:24:19;80.10;;;33.42;;
27899;SDS011;15243;50.726;7.080;2023-03-03T15:26:51;77.18;;;34.65;;
27899;SDS011;15243;50.726;7.080;2023-03-03T15:29:28;79.15;;;34.72;;
27899;SDS011;15243;50.726;7.080;2023-03-03T15:34:45;82.35;;;35.58;;
27899;SDS011;15243;50.726;7.080;2023-03-03T15:37:36;81.75;;;37.28;;
27899;SDS011;15243;50.726;7.080;2023-03-03T15:40:26;84.72;;;37.92;;
27899;SDS011;15243;50.726;7.080;2023-03-03T15:57:00;92.22;;;41.00;;
27899;SDS011;15243;50.726;7.080;2023-03-03T16:03:10;105.25;;;42.90;;
27899;SDS011;15243;50.726;7.080;2023-03-03T16:05:53;100.82;;;40.95;;
27899;SDS011;15243;50.726;7.080;2023-03-03T16:08:25;105.25;;;43.75;;
27899;SDS011;15243;50.726;7.080;2023-03-03T16:19:38;114.28;;;44.33;;
27899;SDS011;15243;50.726;7.080;2023-03-03T16:22:26;110.38;;;43.10;;
27899;SDS011;15243;50.726;7.080;2023-03-03T16:25:13;122.90;;;47.58;;
27899;SDS011;15243;50.726;7.080;2023-03-03T16:28:03;129.90;;;47.78;;
27899;SDS011;15243;50.726;7.080;2023-03-03T16:35:54;139.70;;;54.72;;
27899;SDS011;15243;50.726;7.080;2023-03-03T16:38:31;137.15;;;53.38;;
27899;SDS011;15243;50.726;7.080;2023-03-03T16:41:28;149.15;;;54.35;;
27899;SDS011;15243;50.726;7.080;2023-03-03T16:47:10;144.98;;;53.72;;
27899;SDS011;15243;50.726;7.080;2023-03-03T16:52:49;141.95;;;52.28;;
27899;SDS011;15243;50.726;7.080;2023-03-03T16:55:29;138.10;;;51.08;;
27899;SDS011;15243;50.726;7.080;2023-03-03T16:58:18;148.05;;;52.60;;
27899;SDS011;15243;50.726;7.080;2023-03-03T17:03:34;134.18;;;52.30;;
27899;SDS011;15243;50.726;7.080;2023-03-03T17:07:02;147.02;;;53.53;;
27899;SDS011;15243;50.726;7.080;2023-03-03T17:09:22;154.52;;;57.05;;
27899;SDS011;15243;50.726;7.080;2023-03-03T17:17:56;157.80;;;57.40;;
27899;SDS011;15243;50.726;7.080;2023-03-03T17:20:29;118.60;;;43.83;;
27899;SDS011;15243;50.726;7.080;2023-03-03T17:25:51;149.90;;;55.83;;
27899;SDS011;15243;50.726;7.080;2023-03-03T17:28:48;164.93;;;60.13;;
27899;SDS011;15243;50.726;7.080;2023-03-03T17:31:39;200.63;;;62.88;;
27899;SDS011;15243;50.726;7.080;2023-03-03T17:45:22;160.57;;;61.35;;
27899;SDS011;15243;50.726;7.080;2023-03-03T17:48:01;157.07;;;58.95;;
27899;SDS011;15243;50.726;7.080;2023-03-03T17:50:48;159.27;;;61.72;;
27899;SDS011;15243;50.726;7.080;2023-03-03T17:56:23;159.93;;;58.30;;
27899;SDS011;15243;50.726;7.080;2023-03-03T18:01:58;162.40;;;57.40;;
27899;SDS011;15243;50.726;7.080;2023-03-03T18:16:38;177.60;;;62.20;;
27899;SDS011;15243;50.726;7.080;2023-03-03T18:22:28;174.07;;;61.75;;
27899;SDS011;15243;50.726;7.080;2023-03-03T18:25:01;176.73;;;60.33;;
27899;SDS011;15243;50.726;7.080;2023-03-03T18:27:47;185.25;;;65.10;;
27899;SDS011;15243;50.726;7.080;2023-03-03T18:33:15;193.43;;;67.03;;
27899;SDS011;15243;50.726;7.080;2023-03-03T18:36:06;191.98;;;66.35;;
27899;SDS011;15243;50.726;7.080;2023-03-03T18:38:38;189.52;;;68.57;;
27899;SDS011;15243;50.726;7.080;2023-03-03T18:41:11;200.32;;;68.70;;
27899;SDS011;15243;50.726;7.080;2023-03-03T18:46:43;196.23;;;69.93;;
27899;SDS011;15243;50.726;7.080;2023-03-03T19:04:35;217.95;;;71.18;;
27899;SDS011;15243;50.726;7.080;2023-03-03T19:09:53;208.63;;;72.82;;
27899;SDS011;15243;50.726;7.080;2023-03-03T19:18:02;216.48;;;71.40;;
27899;SDS011;15243;50.726;7.080;2023-03-03T19:20:47;231.10;;;76.57;;
27899;SDS011;15243;50.726;7.080;2023-03-03T19:28:47;233.18;;;77.38;;
27899;SDS011;15243;50.726;7.080;2023-03-03T19:40:17;226.13;;;75.20;;
27899;SDS011;15243;50.726;7.080;2023-03-03T19:48:47;224.90;;;72.47;;
27899;SDS011;15243;50.726;7.080;2023-03-03T19:56:54;225.50;;;73.68;;
27899;SDS011;15243;50.726;7.080;2023-03-03T20:01:57;231.10;;;76.15;;
27899;SDS011;15243;50.726;7.080;2023-03-03T20:05:15;225.68;;;72.57;;
27899;SDS011;15243;50.726;7.080;2023-03-03T20:16:38;225.00;;;72.85;;
27899;SDS011;15243;50.726;7.080;2023-03-03T20:22:00;239.32;;;75.90;;
27899;SDS011;15243;50.726;7.080;2023-03-03T20:24:39;226.38;;;72.05;;
27899;SDS011;15243;50.726;7.080;2023-03-03T20:27:18;237.20;;;74.47;;
27899;SDS011;15243;50.726;7.080;2023-03-03T20:41:09;230.45;;;75.88;;
27899;SDS011;15243;50.726;7.080;2023-03-03T20:49:20;228.07;;;73.57;;
27899;SDS011;15243;50.726;7.080;2023-03-03T20:54:45;230.07;;;74.60;;
27899;SDS011;15243;50.726;7.080;2023-03-03T20:57:30;242.82;;;76.18;;
27899;SDS011;15243;50.726;7.080;2023-03-03T21:00:11;238.63;;;74.80;;
27899;SDS011;15243;50.726;7.080;2023-03-03T21:05:57;236.73;;;73.72;;
27899;SDS011;15243;50.726;7.080;2023-03-03T21:08:40;233.38;;;77.28;;
27899;SDS011;15243;50.726;7.080;2023-03-03T21:11:38;240.93;;;74.60;;